Time;durP1;ratioP1;P1;durP2;ratioP2;P2;SDS_P1;SDS_P2;PMS_P1;PMS_P2;Temp;Humidity;BMP_temperature;BMP_pressure;BME280_temperature;BME280_humidity;BME280_pressure;Samples;Min_cycle;Max_cycle;Signal;HPM_P1;HPM_P2
2022/04/26 03:36:32;;;;;;;4.15;3.85;;;;;;;8.52;75.84;98183.06;4089521;28;20231;-58
2022/04/26 03:38:35;;;;;;;4.60;4.22;;;;;;;8.51;76.35;98186.84;4088219;28;20215;-57
2022/04/26 03:40:36;;;;;;;4.18;3.88;;;;;;;8.53;76.01;98188.28;4102053;28;20210;-57
2022/04/26 03:42:38;;;;;;;4.82;4.15;;;;;;;8.49;75.94;98189.00;4090438;29;20239;-58
2022/04/26 03:44:40;;;;;;;4.35;3.95;;;;;;;8.49;75.93;98194.47;4102581;28;20214;-57
2022/04/26 03:46:42;;;;;;;4.07;3.55;;;;;;;8.45;76.37;98190.56;4087460;28;20231;-58
2022/04/26 03:48:43;;;;;;;4.65;4.25;;;;;;;8.48;76.30;98192.81;4088148;28;20627;-57
2022/04/26 03:50:45;;;;;;;3.75;3.42;;;;;;;8.48;76.01;98196.34;4090188;28;20207;-56
2022/04/26 03:52:47;;;;;;;4.40;4.00;;;;;;;8.49;75.73;98191.75;4101194;28;20211;-57
2022/04/26 03:54:49;;;;;;;4.57;4.22;;;;;;;8.49;75.97;98194.47;4088579;29;20212;-57
2022/04/26 03:56:51;;;;;;;3.92;3.63;;;;;;;8.48;76.06;98192.81;4093627;29;20235;-58
2022/04/26 03:58:53;;;;;;;4.72;4.32;;;;;;;8.46;76.01;98184.03;4089497;28;20267;-57
2022/04/26 04:00:54;;;;;;;4.20;3.85;;;;;;;8.42;76.37;98189.16;4104346;28;20262;-57
2022/04/26 04:02:56;;;;;;;4.90;4.50;;;;;;;8.39;76.57;98199.72;4088385;29;20232;-57
2022/04/26 04:04:58;;;;;;;3.47;3.00;;;;;;;8.37;76.69;98197.25;4087341;29;20283;-56
2022/04/26 04:07:00;;;;;;;4.43;4.03;;;;;;;8.38;75.93;98203.53;4101716;28;20219;-56
2022/04/26 04:09:05;;;;;;;4.05;3.65;;;;;;;8.37;75.92;98210.03;4089604;28;20211;-56
2022/04/26 04:11:07;;;;;;;4.45;4.07;;;;;;;8.37;76.63;98207.31;4088942;28;20216;-56
2022/04/26 04:13:08;;;;;;;5.68;4.47;;;;;;;8.35;76.31;98209.47;4089931;28;20600;-56
2022/04/26 04:15:10;;;;;;;5.22;4.72;;;;;;;8.30;76.35;98209.38;4089468;29;20259;-56
2022/04/26 04:17:12;;;;;;;4.78;4.38;;;;;;;8.31;76.75;98209.13;4086723;28;20262;-57
2022/04/26 04:19:21;;;;;;;3.65;3.35;;;;;;;8.29;76.27;98215.88;4088852;29;20215;-56
2022/04/26 04:21:23;;;;;;;6.38;3.78;;;;;;;8.31;77.02;98214.59;4088563;28;20208;-57
2022/04/26 04:23:24;;;;;;;4.30;3.90;;;;;;;8.21;77.40;98213.56;4088470;28;20219;-58
2022/04/26 04:25:26;;;;;;;4.85;4.45;;;;;;;8.17;77.95;98226.81;4091839;29;20215;-58
2022/04/26 04:27:28;;;;;;;4.22;3.92;;;;;;;8.14;78.04;98223.72;4091868;29;20245;-58
2022/04/26 04:29:29;;;;;;;4.53;4.22;;;;;;;8.13;78.20;98225.63;4115902;28;20249;-57
2022/04/26 04:31:32;;;;;;;4.53;4.00;;;;;;;8.16;78.18;98224.31;4091341;28;20737;-57
2022/04/26 04:33:34;;;;;;;5.85;5.07;;;;;;;8.13;78.19;98233.81;4104026;28;20724;-57
2022/04/26 04:35:36;;;;;;;5.60;5.10;;;;;;;8.16;77.61;98235.22;4103070;28;20245;-58
2022/04/26 04:37:38;;;;;;;3.78;3.58;;;;;;;8.17;77.82;98239.59;4088562;29;20239;-57
2022/04/26 04:39:39;;;;;;;5.82;5.40;;;;;;;8.18;77.38;98241.25;4093448;29;20702;-57
2022/04/26 04:41:41;;;;;;;4.45;4.05;;;;;;;8.21;77.26;98246.25;4086245;28;20235;-58
2022/04/26 04:43:43;;;;;;;4.25;3.88;;;;;;;8.22;77.21;98243.28;4090917;28;20698;-57
2022/04/26 04:45:44;;;;;;;5.15;4.75;;;;;;;8.22;77.74;98237.00;4085453;28;20698;-57
2022/04/26 04:47:46;;;;;;;3.58;3.20;;;;;;;8.22;77.14;98247.91;4087964;28;20211;-58
2022/04/26 04:49:48;;;;;;;3.85;3.55;;;;;;;8.22;77.21;98243.28;4087721;28;20232;-57
2022/04/26 04:51:52;;;;;;;4.60;4.20;;;;;;;8.23;76.92;98244.13;4102371;28;20238;-56
2022/04/26 04:53:54;;;;;;;4.65;4.35;;;;;;;8.34;77.25;98240.53;4098986;28;20277;-57
2022/04/26 04:55:56;;;;;;;4.72;4.32;;;;;;;8.28;77.77;98245.03;4087921;29;20258;-55
2022/04/26 04:57:57;;;;;;;5.03;4.50;;;;;;;8.25;77.75;98258.31;4102367;28;20556;-58
2022/04/26 05:00:00;;;;;;;4.20;3.80;;;;;;;8.25;77.36;98252.88;4100025;28;20207;-55
2022/04/26 05:02:02;;;;;;;4.47;4.07;;;;;;;8.25;77.14;98253.72;4101678;28;20211;-56
2022/04/26 05:04:04;;;;;;;4.95;4.55;;;;;;;8.31;76.96;98262.81;4118075;28;20210;-56
2022/04/26 05:06:06;;;;;;;3.67;3.38;;;;;;;8.32;77.15;98254.41;4101528;28;20231;-56
2022/04/26 05:08:10;;;;;;;3.95;3.50;;;;;;;8.33;76.43;98266.09;4086818;28;20195;-56
2022/04/26 05:10:11;;;;;;;4.35;3.95;;;;;;;8.40;76.44;98256.72;4087966;28;20211;-56
2022/04/26 05:12:13;;;;;;;2.78;2.58;;;;;;;8.41;76.44;98257.56;4086239;29;20207;-57
2022/04/26 05:14:15;;;;;;;4.22;3.88;;;;;;;8.48;76.63;98258.25;4085496;28;20207;-58
2022/04/26 05:16:16;;;;;;;4.22;3.90;;;;;;;8.53;75.88;98258.34;4101165;28;20277;-58
2022/04/26 05:18:18;;;;;;;2.80;2.60;;;;;;;8.54;76.07;98262.75;4084394;28;20777;-58
2022/04/26 05:20:20;;;;;;;3.85;3.58;;;;;;;8.55;75.78;98259.75;4086282;28;20215;-57
2022/04/26 05:22:22;;;;;;;4.20;3.90;;;;;;;8.54;75.48;98251.84;4088741;28;20291;-58
2022/04/26 05:26:44;;;;;;;2.67;2.47;;;;;;;8.39;75.78;98260.53;4091000;29;20276;-58
2022/04/26 05:28:48;;;;;;;2.92;2.72;;;;;;;8.47;76.15;98267.47;4091099;29;20345;-56
2022/04/26 05:30:52;;;;;;;2.70;2.53;;;;;;;8.52;75.32;98267.59;4088476;29;20200;-56
2022/04/26 05:32:54;;;;;;;2.65;2.45;;;;;;;8.51;75.76;98264.06;4089803;28;20236;-56
2022/04/26 05:34:59;;;;;;;3.03;2.83;;;;;;;8.60;75.49;98261.75;4120081;28;20656;-56
2022/04/26 05:37:00;;;;;;;3.40;3.08;;;;;;;8.66;75.04;98271.69;4104974;28;20632;-57
2022/04/26 05:39:02;;;;;;;2.55;2.35;;;;;;;8.76;75.68;98260.97;4090383;28;20766;-56
2022/04/26 05:41:04;;;;;;;2.78;2.58;;;;;;;8.82;75.47;98263.53;4121521;28;20206;-56
2022/04/26 05:43:06;;;;;;;3.38;3.08;;;;;;;8.94;74.91;98264.31;4118774;28;20238;-58
2022/04/26 05:45:08;;;;;;;3.38;3.05;;;;;;;9.01;75.31;98264.97;4103145;28;20238;-56
2022/04/26 05:47:12;;;;;;;2.58;2.28;;;;;;;9.15;75.05;98265.50;4088533;28;20208;-57
2022/04/26 05:49:13;;;;;;;3.08;2.83;;;;;;;9.27;74.85;98269.78;4093657;29;20546;-55
2022/04/26 05:51:15;;;;;;;3.45;2.90;;;;;;;9.43;74.58;98273.59;4091434;29;20294;-57
2022/04/26 05:53:17;;;;;;;2.78;2.58;;;;;;;9.55;74.26;98272.44;4091865;28;20215;-57
2022/04/26 05:55:18;;;;;;;2.22;2.13;;;;;;;9.70;73.84;98269.13;4089069;28;20286;-56
2022/04/26 05:57:20;;;;;;;3.40;2.92;;;;;;;9.78;72.68;98265.94;4101919;28;20222;-56
2022/04/26 05:59:25;;;;;;;3.28;3.00;;;;;;;9.73;73.00;98263.13;4102006;28;20265;-56
2022/04/26 06:01:27;;;;;;;3.45;3.13;;;;;;;9.89;72.99;98267.75;4090424;28;20207;-55
2022/04/26 06:03:29;;;;;;;3.22;3.00;;;;;;;9.90;73.40;98261.22;4092171;29;20229;-58
2022/04/26 06:05:31;;;;;;;2.63;2.42;;;;;;;10.07;72.64;98270.25;4088026;28;20244;-58
2022/04/26 06:07:32;;;;;;;3.28;2.78;;;;;;;10.17;72.31;98268.47;4087740;29;20266;-55
2022/04/26 06:09:34;;;;;;;2.53;2.33;;;;;;;10.07;72.13;98271.06;4092956;28;20258;-55
2022/04/26 06:11:36;;;;;;;3.17;2.88;;;;;;;10.02;71.49;98270.13;4089584;29;20267;-55
2022/04/26 06:13:39;;;;;;;3.13;2.90;;;;;;;10.02;71.05;98278.34;4093394;29;20211;-56
2022/04/26 06:15:41;;;;;;;2.67;2.47;;;;;;;9.94;71.62;98276.03;4095706;29;20223;-56
2022/04/26 06:17:43;;;;;;;3.15;2.95;;;;;;;9.91;71.91;98277.38;4091451;29;20260;-56
2022/04/26 06:19:45;;;;;;;2.35;2.15;;;;;;;9.98;72.11;98282.63;4090538;29;20212;-56
2022/04/26 06:21:46;;;;;;;3.00;2.80;;;;;;;9.88;72.36;98283.31;4085251;28;20567;-56
2022/04/26 06:23:48;;;;;;;2.70;2.50;;;;;;;9.99;72.37;98284.28;4089974;28;20349;-57
2022/04/26 06:25:50;;;;;;;3.28;2.97;;;;;;;10.13;72.69;98280.13;4086099;29;20234;-57
2022/04/26 06:27:52;;;;;;;2.63;2.42;;;;;;;10.23;71.67;98285.75;4119636;28;20202;-57
2022/04/26 06:29:58;;;;;;;2.83;2.63;;;;;;;10.24;72.07;98287.41;4087381;29;20215;-57
2022/04/26 06:31:59;;;;;;;2.33;2.17;;;;;;;10.46;71.36;98291.81;4087534;29;20231;-57
2022/04/26 06:34:04;;;;;;;4.05;3.75;;;;;;;10.67;72.16;98290.97;4121426;28;20211;-57
2022/04/26 06:36:06;;;;;;;3.25;2.70;;;;;;;10.96;71.54;98287.75;4090854;28;20718;-56
2022/04/26 06:38:07;;;;;;;2.42;2.25;;;;;;;11.07;69.75;98289.50;4098004;29;20228;-54
2022/04/26 06:40:09;;;;;;;3.10;2.90;;;;;;;11.07;70.64;98294.97;4105041;28;20215;-55
2022/04/26 06:42:11;;;;;;;2.38;2.17;;;;;;;11.14;70.17;98286.53;4089462;28;20211;-54
2022/04/26 06:44:13;;;;;;;2.80;2.60;;;;;;;11.28;69.45;98302.31;4096179;28;20258;-56
2022/04/26 06:46:14;;;;;;;3.95;3.60;;;;;;;11.21;68.97;98290.72;4092176;29;20271;-56
2022/04/26 06:48:19;;;;;;;2.45;2.20;;;;;;;11.15;69.16;98289.03;4106950;28;20298;-56
2022/04/26 06:50:21;;;;;;;3.15;2.85;;;;;;;11.13;68.97;98293.09;4104326;28;20661;-56
2022/04/26 06:52:24;;;;;;;2.95;2.75;;;;;;;10.99;69.04;98305.56;4105880;28;20207;-54
2022/04/26 06:54:25;;;;;;;2.45;2.25;;;;;;;10.83;69.92;98293.63;4088068;29;20220;-57
2022/04/26 06:56:27;;;;;;;2.67;2.47;;;;;;;10.78;69.81;98307.25;4102792;28;20385;-55
2022/04/26 06:58:30;;;;;;;3.58;3.13;;;;;;;10.75;69.89;98300.63;4095901;29;20258;-56
2022/04/26 07:00:32;;;;;;;3.35;3.03;;;;;;;10.72;69.84;98306.59;4090156;29;20530;-56
2022/04/26 07:02:34;;;;;;;4.30;3.90;;;;;;;10.77;69.42;98309.41;4088788;29;20300;-56
2022/04/26 07:04:39;;;;;;;3.78;3.47;;;;;;;10.69;69.66;98312.59;4088920;29;20255;-54
2022/04/26 07:06:42;;;;;;;5.15;4.75;;;;;;;10.57;70.09;98309.16;4083498;28;20856;-56
2022/04/26 07:08:44;;;;;;;4.93;4.53;;;;;;;10.65;69.95;98309.56;4085241;28;20235;-54
2022/04/26 07:10:46;;;;;;;6.20;4.70;;;;;;;10.72;69.72;98307.44;4102377;28;20243;-54
2022/04/26 07:12:48;;;;;;;5.38;4.97;;;;;;;10.84;69.99;98306.22;4088103;29;20263;-54
2022/04/26 07:14:50;;;;;;;5.18;4.68;;;;;;;10.49;69.99;98312.38;4091653;28;20215;-54
2022/04/26 07:16:52;;;;;;;3.85;3.55;;;;;;;10.67;70.12;98312.03;4089188;28;20261;-55
2022/04/26 07:18:53;;;;;;;5.00;4.70;;;;;;;10.57;69.69;98314.66;4104848;28;20882;-54
2022/04/26 07:20:55;;;;;;;4.50;4.10;;;;;;;10.25;70.41;98310.94;4086114;29;20206;-55
2022/04/26 07:22:57;;;;;;;4.55;4.15;;;;;;;10.47;69.97;98317.28;4117694;28;20222;-54
2022/04/26 07:24:59;;;;;;;4.22;3.83;;;;;;;10.40;69.28;98319.34;4088150;29;20295;-56
2022/04/26 07:27:01;;;;;;;4.63;3.97;;;;;;;10.35;69.62;98311.09;4088660;28;20235;-55
2022/04/26 07:29:03;;;;;;;5.57;5.07;;;;;;;10.54;69.50;98304.22;4092131;28;20263;-55
2022/04/26 07:31:05;;;;;;;3.45;3.15;;;;;;;10.51;69.51;98311.03;4091762;29;20208;-55
2022/04/26 07:35:27;;;;;;;5.70;4.60;;;;;;;10.57;69.48;98320.13;4088238;29;20208;-56
2022/04/26 07:37:29;;;;;;;4.95;4.55;;;;;;;10.75;69.01;98323.34;4087710;28;20265;-55
2022/04/26 07:39:35;;;;;;;4.80;4.20;;;;;;;11.04;69.16;98316.56;4101646;28;20314;-55
2022/04/26 07:41:39;;;;;;;4.95;4.32;;;;;;;11.36;68.93;98321.00;4092143;28;20295;-56
2022/04/26 07:43:41;;;;;;;6.07;5.57;;;;;;;12.12;68.67;98320.53;4092896;28;20207;-55
2022/04/26 07:45:43;;;;;;;3.65;3.35;;;;;;;12.44;65.98;98321.28;4102376;28;20748;-55
2022/04/26 07:47:45;;;;;;;6.38;5.30;;;;;;;12.48;65.37;98327.88;4086411;28;20671;-55
2022/04/26 07:49:47;;;;;;;5.43;4.45;;;;;;;12.74;64.09;98326.91;4087982;28;20215;-55
2022/04/26 07:51:49;;;;;;;4.57;4.13;;;;;;;12.83;62.60;98322.56;4087731;28;20203;-55
2022/04/26 07:53:51;;;;;;;4.43;3.85;;;;;;;13.44;64.42;98324.38;4102224;28;20230;-55
2022/04/26 07:55:53;;;;;;;3.80;3.50;;;;;;;13.34;63.13;98318.88;4087543;28;20257;-54
2022/04/26 07:58:00;;;;;;;3.88;3.33;;;;;;;13.36;62.96;98327.66;4087169;29;20230;-54
2022/04/26 08:00:03;;;;;;;3.70;3.40;;;;;;;12.94;62.30;98329.75;4119560;28;20206;-54
2022/04/26 08:02:08;;;;;;;3.25;2.95;;;;;;;12.75;62.61;98331.31;4089290;28;20208;-54
2022/04/26 08:04:10;;;;;;;3.17;2.88;;;;;;;12.76;63.03;98324.72;4089277;28;20238;-55
2022/04/26 08:06:14;;;;;;;3.47;3.25;;;;;;;12.74;62.93;98335.16;4087464;28;20220;-55
2022/04/26 08:08:16;;;;;;;4.18;3.42;;;;;;;12.63;62.97;98338.94;4103569;28;20277;-55
2022/04/26 08:10:18;;;;;;;3.40;3.10;;;;;;;12.54;63.55;98339.72;4092592;28;20234;-54
2022/04/26 08:12:19;;;;;;;3.58;3.28;;;;;;;12.11;63.36;98337.28;4089726;28;20215;-54
2022/04/26 08:14:21;;;;;;;4.65;3.03;;;;;;;12.13;63.64;98337.81;4088116;28;20211;-55
2022/04/26 08:16:23;;;;;;;4.45;3.58;;;;;;;11.95;64.60;98347.31;4086456;28;20231;-55
2022/04/26 08:18:25;;;;;;;6.47;3.92;;;;;;;11.69;64.23;98356.41;4087505;28;20265;-54
2022/04/26 08:20:26;;;;;;;6.85;4.63;;;;;;;11.54;63.67;98350.78;4081225;28;20824;-56
2022/04/26 08:22:30;;;;;;;4.18;3.47;;;;;;;11.35;64.32;98368.66;4115652;28;20210;-55
2022/04/26 08:29:15;;;;;;;2.88;2.42;;;;;;;10.89;66.40;98380.19;4085227;28;20200;-54
2022/04/26 08:31:17;;;;;;;3.05;2.67;;;;;;;10.99;67.30;98391.28;4084696;28;20204;-54
2022/04/26 08:33:19;;;;;;;2.88;2.47;;;;;;;10.92;67.90;98389.81;4104262;28;20293;-55
2022/04/26 08:35:23;;;;;;;3.53;2.50;;;;;;;10.90;68.44;98398.25;4093737;28;20207;-54
2022/04/26 08:37:45;;;;;;;2.88;2.50;;;;;;;10.68;69.13;98396.59;4111711;28;20234;-56
2022/04/26 08:39:52;;;;;;;2.40;2.20;;;;;;;10.68;69.93;98404.00;4085554;29;20223;-55
2022/04/26 08:41:58;;;;;;;3.58;2.65;;;;;;;10.47;70.59;98407.53;4087451;29;20206;-57
2022/04/26 08:43:59;;;;;;;2.85;2.63;;;;;;;10.39;71.04;98407.94;4100297;28;20297;-58
2022/04/26 08:46:03;;;;;;;2.85;2.22;;;;;;;10.40;70.73;98413.19;4088416;29;20231;-56
2022/04/26 08:52:51;;;;;;;2.13;2.03;;;;;;;10.41;72.09;98419.50;4087862;29;20234;-57
2022/04/26 08:54:53;;;;;;;2.30;2.00;;;;;;;10.47;71.68;98423.94;4089989;28;20806;-55
2022/04/26 08:56:55;;;;;;;2.72;2.47;;;;;;;10.38;72.31;98429.03;4101828;28;20223;-55
2022/04/26 08:58:57;;;;;;;1.60;1.50;;;;;;;10.45;72.56;98420.63;4086823;28;20770;-57
2022/04/26 09:01:04;;;;;;;2.50;1.92;;;;;;;10.59;72.43;98427.38;4121594;28;20746;-56
2022/04/26 09:03:07;;;;;;;1.30;1.20;;;;;;;10.61;71.37;98430.72;4091312;29;20669;-56
2022/04/26 09:05:14;;;;;;;2.55;2.10;;;;;;;10.74;71.70;98430.34;4104917;28;20273;-55
2022/04/26 09:07:33;;;;;;;1.85;1.75;;;;;;;10.90;70.39;98420.16;4092972;29;20274;-57
2022/04/26 09:09:38;;;;;;;2.33;1.65;;;;;;;10.91;70.03;98432.75;4121722;28;20247;-57
2022/04/26 09:11:41;;;;;;;1.73;1.63;;;;;;;10.92;70.48;98426.19;4092544;28;20208;-56
2022/04/26 09:13:42;;;;;;;2.22;1.48;;;;;;;10.94;69.45;98426.81;4095072;28;20218;-56
2022/04/26 09:15:56;;;;;;;1.40;1.30;;;;;;;11.08;70.08;98428.06;4105338;28;20644;-56
2022/04/26 09:18:13;;;;;;;1.17;1.10;;;;;;;11.21;69.75;98438.63;4092132;29;20676;-57
2022/04/26 09:20:31;;;;;;;1.23;0.90;;;;;;;11.25;69.63;98439.75;4088578;29;20254;-56
2022/04/26 09:22:34;;;;;;;0.90;0.90;;;;;;;11.42;69.77;98446.00;4104180;28;20716;-55
2022/04/26 09:25:11;;;;;;;1.48;0.90;;;;;;;11.58;68.38;98445.09;4088836;29;20851;-54
2022/04/26 09:27:16;;;;;;;1.10;1.10;;;;;;;11.54;66.59;98446.69;4091579;28;20512;-58
2022/04/26 09:29:20;;;;;;;0.70;0.65;;;;;;;11.60;66.81;98453.06;4105760;28;20305;-55
2022/04/26 09:31:24;;;;;;;0.75;0.75;;;;;;;11.54;66.73;98459.53;4089408;29;20580;-57
2022/04/26 09:33:47;;;;;;;1.00;1.00;;;;;;;11.52;65.97;98450.75;4089621;29;20231;-56
2022/04/26 09:35:59;;;;;;;0.60;0.60;;;;;;;11.79;66.59;98463.44;4093837;29;20235;-54
2022/04/26 09:38:04;;;;;;;1.02;1.00;;;;;;;11.77;66.36;98460.09;4104348;28;20194;-55
2022/04/26 09:40:08;;;;;;;1.38;0.90;;;;;;;11.75;66.05;98456.81;4121246;28;20684;-55
2022/04/26 09:42:10;;;;;;;0.85;0.80;;;;;;;11.96;66.58;98463.31;4092820;28;20200;-57
2022/04/26 09:44:11;;;;;;;0.63;0.63;;;;;;;11.96;64.72;98461.38;4092539;29;20215;-56
2022/04/26 09:46:13;;;;;;;0.82;0.82;;;;;;;12.24;64.79;98466.56;4106784;28;20587;-55
2022/04/26 09:48:25;;;;;;;0.85;0.80;;;;;;;12.31;64.05;98460.88;4122395;28;20226;-55
2022/04/26 09:50:27;;;;;;;0.95;0.95;;;;;;;12.34;63.66;98457.59;4089846;28;20211;-54
2022/04/26 09:52:29;;;;;;;0.85;0.82;;;;;;;12.43;63.50;98465.06;4104189;28;20677;-55
2022/04/26 09:54:31;;;;;;;1.90;1.70;;;;;;;12.43;63.35;98456.03;4086815;29;20207;-54
2022/04/26 09:56:33;;;;;;;2.08;0.80;;;;;;;12.56;62.75;98453.66;4094348;29;20238;-54
2022/04/26 09:58:38;;;;;;;1.05;0.95;;;;;;;12.64;63.44;98464.13;4089771;29;20220;-55
2022/04/26 10:00:43;;;;;;;1.10;1.00;;;;;;;12.81;64.00;98455.72;4089303;29;20211;-54
2022/04/26 10:02:46;;;;;;;0.77;0.77;;;;;;;12.95;63.63;98452.28;4088203;29;20206;-56
2022/04/26 10:04:52;;;;;;;1.55;1.30;;;;;;;13.07;63.30;98450.16;4088257;28;20217;-56
2022/04/26 10:07:03;;;;;;;1.10;1.00;;;;;;;13.43;62.83;98454.69;4098783;28;20227;-56
2022/04/26 10:09:06;;;;;;;1.25;1.15;;;;;;;13.74;61.43;98455.59;4088348;28;20288;-55
2022/04/26 10:11:08;;;;;;;1.23;1.20;;;;;;;14.18;61.14;98456.75;4100146;28;20721;-56
2022/04/26 10:15:34;;;;;;;1.23;1.13;;;;;;;14.81;59.24;98456.19;4086678;28;20228;-55
2022/04/26 10:17:36;;;;;;;1.33;1.10;;;;;;;15.55;59.51;98452.38;4104760;28;20215;-55
2022/04/26 10:19:43;;;;;;;0.80;0.80;;;;;;;15.71;56.53;98459.47;4092926;29;20235;-56
2022/04/26 10:21:46;;;;;;;0.90;0.85;;;;;;;15.29;55.58;98453.56;4087112;28;20203;-54
2022/04/26 10:23:51;;;;;;;0.80;0.80;;;;;;;15.84;56.73;98453.31;4093002;28;20215;-54
2022/04/26 10:26:11;;;;;;;1.02;0.90;;;;;;;15.97;54.38;98454.63;4103092;28;20242;-54
2022/04/26 10:28:28;;;;;;;1.17;0.95;;;;;;;16.43;56.89;98448.50;4102134;28;20222;-55
2022/04/26 10:30:52;;;;;;;1.05;0.95;;;;;;;16.94;54.84;98441.38;4118686;28;20217;-55
2022/04/26 10:32:54;;;;;;;0.80;0.80;;;;;;;17.24;54.56;98452.09;4087605;28;20324;-55
2022/04/26 10:34:56;;;;;;;1.33;1.05;;;;;;;16.96;54.62;98447.44;4087636;28;20722;-55
2022/04/26 10:37:11;;;;;;;0.90;0.90;;;;;;;16.30;54.80;98445.56;4089214;29;20228;-55
2022/04/26 10:39:16;;;;;;;1.38;1.27;;;;;;;15.62;54.63;98458.41;4102529;28;20266;-54
2022/04/26 10:41:33;;;;;;;1.75;1.65;;;;;;;15.05;56.47;98457.25;4101997;28;20788;-54
2022/04/26 10:43:38;;;;;;;1.80;1.65;;;;;;;14.60;56.25;98465.59;4087143;29;20234;-54
2022/04/26 10:46:13;;;;;;;2.78;1.48;;;;;;;14.32;56.86;98467.00;4086973;28;20231;-54
2022/04/26 10:48:25;;;;;;;1.90;1.80;;;;;;;13.90;58.50;98465.53;4090244;28;20207;-54
2022/04/26 10:50:32;;;;;;;4.80;1.70;;;;;;;13.79;58.08;98464.69;4112001;28;21448;-53
2022/04/26 10:52:36;;;;;;;1.50;1.40;;;;;;;13.47;58.87;98461.28;4092984;29;20296;-54
2022/04/26 10:55:07;;;;;;;4.70;1.63;;;;;;;14.17;57.33;98461.44;4090681;28;20208;-54
2022/04/26 10:57:09;;;;;;;1.10;1.00;;;;;;;14.44;57.81;98459.25;4107970;28;21070;-54
2022/04/26 10:59:12;;;;;;;0.95;0.90;;;;;;;15.31;57.24;98467.88;4090612;29;20761;-54
2022/04/26 11:01:14;;;;;;;1.27;1.17;;;;;;;15.94;55.53;98463.47;4089326;28;20274;-54
2022/04/26 11:03:18;;;;;;;1.50;1.40;;;;;;;16.42;54.82;98463.41;4103939;28;20981;-54
2022/04/26 11:05:25;;;;;;;2.13;1.08;;;;;;;16.00;53.99;98471.44;4090192;29;20266;-53
2022/04/26 11:07:29;;;;;;;1.15;1.05;;;;;;;15.60;54.71;98455.13;4091789;29;20218;-53
2022/04/26 11:09:31;;;;;;;1.55;1.45;;;;;;;15.25;54.09;98455.25;4120476;28;20650;-56
2022/04/26 11:12:06;;;;;;;1.15;1.00;;;;;;;14.99;55.12;98459.19;4119440;28;20209;-54
2022/04/26 11:14:07;;;;;;;1.13;0.98;;;;;;;15.11;55.53;98459.69;4076152;28;20237;-54
2022/04/26 11:16:14;;;;;;;1.60;1.50;;;;;;;15.35;55.49;98460.75;4106684;28;20230;-54
2022/04/26 11:18:20;;;;;;;0.73;0.73;;;;;;;15.71;55.22;98467.72;4091530;29;21073;-54
2022/04/26 11:20:24;;;;;;;1.30;1.20;;;;;;;16.07;53.56;98466.44;4102716;28;22588;-53
2022/04/26 11:22:29;;;;;;;1.83;1.20;;;;;;;16.63;53.77;98467.66;4086655;28;20212;-53
2022/04/26 11:29:31;;;;;;;1.15;1.05;;;;;;;16.55;52.85;98475.75;4088619;29;20196;-54
2022/04/26 11:31:40;;;;;;;1.23;1.13;;;;;;;14.69;55.01;98484.03;4089806;29;20235;-54
2022/04/26 11:33:52;;;;;;;1.02;1.02;;;;;;;14.02;56.62;98480.69;4089072;29;20211;-54
2022/04/26 11:36:01;;;;;;;1.67;1.25;;;;;;;13.88;56.94;98485.06;4105757;28;20297;-54
2022/04/26 11:38:08;;;;;;;1.27;1.17;;;;;;;13.41;58.00;98483.53;4104093;28;20215;-54
2022/04/26 11:40:10;;;;;;;1.42;1.30;;;;;;;12.96;60.06;98483.31;4091157;29;20274;-54
2022/04/26 11:42:12;;;;;;;1.40;1.30;;;;;;;13.02;61.06;98491.31;4101615;28;20237;-55
2022/04/26 11:44:17;;;;;;;1.50;1.40;;;;;;;13.31;60.25;98495.31;4105042;28;20212;-53
2022/04/26 11:46:19;;;;;;;1.35;1.25;;;;;;;13.89;60.17;98497.72;4091134;29;20239;-54
2022/04/26 11:48:24;;;;;;;1.75;1.65;;;;;;;14.33;58.45;98503.59;4109265;28;20211;-55
2022/04/26 11:50:30;;;;;;;1.80;1.70;;;;;;;14.40;59.41;98506.91;4093961;29;20244;-54
2022/04/26 11:52:32;;;;;;;1.85;1.67;;;;;;;14.86;59.26;98512.13;4087264;29;20247;-55
2022/04/26 11:54:34;;;;;;;1.25;1.20;;;;;;;15.28;59.84;98512.56;4092922;29;20216;-55
2022/04/26 11:56:36;;;;;;;1.23;1.13;;;;;;;14.09;59.65;98508.75;4101863;28;20234;-55
2022/04/26 11:58:39;;;;;;;1.35;1.25;;;;;;;14.27;60.18;98516.53;4087685;28;20250;-55
2022/04/26 12:00:56;;;;;;;1.45;1.35;;;;;;;14.60;58.93;98516.00;4118035;28;20202;-55
2022/04/26 12:03:04;;;;;;;0.90;0.85;;;;;;;13.00;61.40;98534.72;4100738;28;20202;-55
2022/04/26 12:05:08;;;;;;;1.55;1.45;;;;;;;12.45;64.37;98527.94;4099819;28;20210;-53
2022/04/26 12:07:20;;;;;;;1.00;1.00;;;;;;;12.44;65.06;98531.78;4087933;28;20213;-54
2022/04/26 12:09:23;;;;;;;0.73;0.73;;;;;;;12.58;66.33;98528.31;4118868;28;20256;-54
2022/04/26 12:11:32;;;;;;;1.10;1.10;;;;;;;11.81;64.53;98532.53;4072457;29;20289;-54
2022/04/26 12:13:34;;;;;;;0.93;0.90;;;;;;;12.07;65.65;98528.13;4092543;28;20215;-54
2022/04/26 12:15:38;;;;;;;0.98;0.88;;;;;;;12.32;66.89;98534.72;4089047;28;20232;-54
2022/04/26 12:17:40;;;;;;;1.58;0.98;;;;;;;12.40;65.42;98533.38;4116345;28;20211;-54
2022/04/26 12:19:42;;;;;;;0.85;0.85;;;;;;;12.55;64.58;98534.34;4100930;28;20602;-54
2022/04/26 12:21:49;;;;;;;2.42;2.30;;;;;;;12.40;64.33;98534.22;4087573;28;20254;-55
2022/04/26 12:24:10;;;;;;;1.80;1.70;;;;;;;12.18;64.36;98527.97;4087887;28;20235;-55
2022/04/26 12:26:13;;;;;;;2.40;2.00;;;;;;;12.23;65.17;98530.75;4086544;28;20564;-54
2022/04/26 12:28:14;;;;;;;1.75;1.65;;;;;;;12.40;65.13;98534.22;4084359;28;20754;-53
2022/04/26 12:30:16;;;;;;;1.60;1.50;;;;;;;12.51;65.43;98527.72;4089495;28;20207;-55
2022/04/26 12:32:20;;;;;;;2.53;2.15;;;;;;;12.48;64.98;98524.66;4085748;28;20685;-55
2022/04/26 12:34:24;;;;;;;4.03;2.03;;;;;;;12.64;64.69;98531.94;4099890;28;20289;-55
2022/04/26 12:36:26;;;;;;;3.33;2.75;;;;;;;13.19;65.01;98524.09;4083267;28;20238;-54
2022/04/26 12:38:28;;;;;;;1.85;1.75;;;;;;;13.98;64.33;98531.84;4087283;28;20255;-53
2022/04/26 12:40:29;;;;;;;2.00;1.83;;;;;;;14.48;61.63;98529.22;4099651;28;20243;-54
2022/04/26 12:42:37;;;;;;;1.83;1.70;;;;;;;14.16;61.92;98517.56;4086574;28;20211;-54
2022/04/26 12:44:56;;;;;;;2.22;1.98;;;;;;;14.09;62.18;98519.75;4086241;28;20640;-53
2022/04/26 12:51:54;;;;;;;2.08;1.90;;;;;;;15.02;57.53;98518.44;4087269;28;20203;-54
2022/04/26 12:54:09;;;;;;;2.20;2.00;;;;;;;15.46;56.69;98525.78;4086485;28;20208;-54
2022/04/26 12:56:11;;;;;;;1.05;1.05;;;;;;;15.83;54.77;98526.16;4086008;28;20297;-55
2022/04/26 12:58:15;;;;;;;1.10;1.00;;;;;;;16.18;54.15;98533.44;4085860;28;20246;-55
2022/04/26 13:00:19;;;;;;;1.30;1.20;;;;;;;16.19;53.41;98527.66;4097742;28;20231;-54
2022/04/26 13:02:22;;;;;;;1.45;1.17;;;;;;;16.34;53.36;98538.59;4086003;28;20686;-56
2022/04/26 13:04:24;;;;;;;1.30;1.20;;;;;;;16.54;52.32;98537.63;4103230;28;20298;-54
2022/04/26 13:06:29;;;;;;;2.47;2.28;;;;;;;16.23;52.32;98525.13;4120096;28;20269;-56
2022/04/26 13:08:51;;;;;;;1.75;1.65;;;;;;;15.78;52.50;98528.97;4086749;28;20211;-55
2022/04/26 13:10:54;;;;;;;1.23;1.13;;;;;;;15.54;53.21;98527.13;4103074;28;20207;-55
2022/04/26 13:12:56;;;;;;;2.95;1.65;;;;;;;15.67;53.22;98521.84;4101963;28;20248;-54
2022/04/26 13:15:01;;;;;;;1.27;1.10;;;;;;;15.39;53.25;98525.28;4090756;28;20215;-54
2022/04/26 13:17:04;;;;;;;1.25;1.15;;;;;;;15.13;53.23;98533.84;4101580;28;20333;-55
2022/04/26 13:19:08;;;;;;;1.70;1.42;;;;;;;14.82;53.58;98532.25;4101293;28;20667;-55
2022/04/26 13:21:10;;;;;;;1.13;1.02;;;;;;;14.92;53.63;98535.81;4083354;28;20208;-55
2022/04/26 13:23:13;;;;;;;1.73;1.63;;;;;;;14.69;53.18;98530.84;4071565;29;20236;-55
2022/04/26 13:25:14;;;;;;;1.30;0.93;;;;;;;14.92;54.35;98530.31;4088116;28;20261;-55
2022/04/26 13:27:16;;;;;;;19.02;1.85;;;;;;;15.04;54.45;98530.81;4089986;28;20199;-55
2022/04/26 13:29:18;;;;;;;0.90;0.90;;;;;;;15.28;53.51;98539.31;4093634;28;20208;-53
2022/04/26 13:31:20;;;;;;;1.15;0.93;;;;;;;15.12;52.09;98535.78;4118726;28;20556;-54
2022/04/26 13:33:22;;;;;;;0.80;0.75;;;;;;;15.16;52.54;98531.34;4088536;28;20238;-54
2022/04/26 13:35:25;;;;;;;0.85;0.85;;;;;;;15.01;51.41;98539.66;4100721;28;20237;-53
2022/04/26 13:37:27;;;;;;;1.23;1.13;;;;;;;14.82;52.50;98530.31;4120603;28;20221;-53
2022/04/26 13:39:28;;;;;;;1.00;0.90;;;;;;;14.48;52.71;98545.72;4102453;28;20262;-54
2022/04/26 13:41:31;;;;;;;1.13;0.77;;;;;;;14.58;52.72;98545.72;4089918;29;20239;-53
2022/04/26 13:43:33;;;;;;;1.20;1.05;;;;;;;14.60;53.50;98543.53;4087938;28;20996;-54
2022/04/26 13:45:49;;;;;;;1.27;1.17;;;;;;;14.42;54.63;98544.06;4091836;28;20634;-54
2022/04/26 13:47:52;;;;;;;1.17;1.08;;;;;;;14.52;54.03;98546.00;4105727;28;20334;-54
2022/04/26 13:49:54;;;;;;;1.05;0.95;;;;;;;14.46;53.92;98547.94;4091033;28;20251;-54